หน้าหลัก
METAR-TAF:

METAR-TAF

ท่าอากาศยาน :

ตาระวา, คิริบาส

ละติจูด: 01-21N, ลองจิจูด: 172-55E, ความสูง: 2 ม.

การสังเกตสภาพอากาศปัจจุบัน

รายงานได้ทำขึ้นเมื่อ 1 ชั่วโมงและ 12 นาทีที่แล้ว ณ เวลา 06:00 UTC
ลม 9 นอตจากตะวันออก
อุณหภูมิ 30°C
ความชื้น 75%
ความกดอากาศ 1008 hPa
ทัศนวิสัย 10 กม. หรือมากกว่า
มีเมฆน้อยที่ความสูง 2000 ฟุต

METAR: NGTA 300600Z 08009KT 9999 FEW020 30/25 Q1008

เวลา: 21:12 (07:12 UTC)

การพยากรณ์

รายงานได้ทำขึ้นเมื่อ 2 ชั่วโมงและ 8 นาทีที่แล้ว ณ เวลา 05:04 UTC
การพยากรณ์มีผลตั้งแต่วันที่ 30 ณ เวลา 06 UTC จนถึงวันที่ 31 ณ เวลา 06 UTC
ลม 9 นอตจากตะวันออก
ทัศนวิสัย 10 กม. หรือมากกว่า
มีเมฆกระจายเป็นบางส่วนที่ความสูง 2000 ฟุต

TAF: NGTA 300504Z 3006/3106 09009KT 9999 SCT020

สังเกตการณ์สภาพอากาศและพยากรณ์อากาศของสนามบินมากกว่า 4000 แห่ง (รายงาน METAR และ TAF).

สถานีที่ดูได้จะแสดงไว้ด้วยจุดสีเหลืองและสีแดงบนแผนที่.

เลื่อนเมาส์ไปเหนือจุดเพื่อดูชื่อสถานี.

แล้วคลิกเพื่อดูสังเกตการณ์และการพยากรณ์สภาพอากาศ.

ในการเปลี่ยนแผนที่: คลิกที่ปุ่มสีเขียวที่มีกากบาทสีดำเพื่อซูมเข้า; ที่ปุ่มสีเขียวที่มีขีดเพื่อซูมออก; หรือที่ลูกศรสีเขียวเพื่อไปยังแผนที่ที่อยู่ติดกัน.


METAR-TAF: